Bubiyan, Kuwait

10:09 AM +03 on June 24, 2017 (GMT +0300)
Abadan | | Change Station

Elev 10 ft 30.37 °N, 48.25 °E | Updated 9 minutes ago

Clear
Clear
104 °F
Feels Like 104 °F
N
18
Wind Variable Wind from NW

Today
High -- | Low -- °F
--% Chance of Precip.
Yesterday
High -- | Low -- °F
Precip. -- in
Pressure 29.59 in
Visibility -9999.0 miles
Clouds
Dew Point 43 °F
Humidity 12%
Rainfall 0.00 in
Snow Depth Not available.
4:47 AM 6:50 PM
New Moon, 0% visible
METAR OIAA 240700Z 31016KT CAVOK 40/06 Q1002
Pressure 29.59 in
Visibility -9999.0 miles
Clouds
Dew Point 43 °F
Humidity 12%
Rainfall 0.00 in
Snow Depth Not available.
4:47 AM 6:50 PM
New Moon, 0% visible
METAR OIAA 240700Z 31016KT CAVOK 40/06 Q1002

Get Severe Weather Alerts

Thanks for signing up!

Be on the lookout for a verification email in your inbox.

You'll start receiving the daily forecast at 6 AM.

×

10-Day Weather Forecast

No radar image for this location.
×

Almanac

Astronomy

Jun. 24, 2017 Rise Set
Actual Time
Civil Twilight
Nautical Twilight
Astronomical Twilight
Moon
Length of Visible Light
Length of Day
Tomorrow will be .
, % of the Moon is Illuminated

Today's Extremes

Country Highs Country Lows

Community

WunderPhotos

Category 6

Welcome to Category 6. This is the collective home for Weather Underground's featured writeups by Dr. Jeff Masters (right), Bob Henson (left), Chris Burt, and other regular contributors.

Nearby

Air Quality

  Air Quality AQ Index Pollutant
Not available.

Snow Depth

Station Depth Elevation

Earthquake Activity

City Distance Mag. Time & Date
Minimum magnitude displayed is 2.5.

Coastal Water Temperatures

Place Temperature

Stations

Nearby Weather Stations

Station Location Temp. Windchill Dew Point Humidity Wind Precip. Elev Updated Type